Latest Weather Observations for Temora

IDN60801

Issued at 2:32 pm EST Sunday 24 September 2017 (issued every 30 minutes, with the page automatically refreshed every 10 minutes)

About weather observations | Map of weather stations | Latest weather observations for NSW | Other Formats
Station Details ID: 073151 Name: TEMORA AIRPORT Lat: -34.43 Lon: 147.51 Height: 280.5 m
Data from the previous 72 hours. | See also: Recent months at Temora
Date/Time
EST
Temp
°C
App
Temp
°C
Dew
Point
°C
Rel
Hum
%
Delta-T
°C
Wind Press
QNH
hPa
Press
MSL
hPa
Rain since
9am
mm
Dir  Spd
km/h
Gust
km/h
Spd
kts
Gust
kts
24/02:30pm 23.6 14.5 -0.6 20 11.1 WNW 37 52 20 28 1004.3 1004.3 0.0
24/02:27pm 23.4 14.0 -0.1 21 10.9 WNW 39 57 21 31 1004.3 1004.3 0.0
24/02:00pm 23.5 14.9 -0.1 21 10.9 WNW 35 48 19 26 1004.7 1004.7 0.0
24/01:30pm 23.2 13.9 0.3 22 10.6 NW 39 57 21 31 1005.2 1005.2 0.0
24/01:05pm 23.6 16.0 0.7 22 10.7 NW 30 48 16 26 1005.2 1005.2 0.0
24/01:00pm 23.0 14.9 -0.5 21 10.7 WNW 32 46 17 25 1005.2 1005.2 0.0
24/12:46pm 23.5 16.0 1.2 23 10.5 NW 30 50 16 27 1005.4 1005.4 0.0
24/12:30pm 22.2 14.2 0.7 24 9.9 NW 32 46 17 25 1005.5 1005.5 0.0
24/12:26pm 22.5 15.3 0.4 23 10.2 NW 28 46 15 25 1005.5 1005.5 0.0
24/12:00pm 22.2 14.2 0.7 24 10.0 WNW 32 41 17 22 1005.9 1005.9 0.0
24/11:30am 21.6 14.5 1.3 26 9.5 WNW 28 52 15 28 1006.3 1006.3 0.0
24/11:27am 22.0 14.8 0.5 24 9.9 WNW 28 52 15 28 1006.4 1006.4 0.0
24/11:00am 21.6 15.2 0.8 25 9.6 WNW 24 39 13 21 1006.5 1006.5 0.0
24/10:30am 20.4 15.2 3.6 33 8.1 NW 20 48 11 26 1006.8 1006.9 0.0
24/10:00am 18.9 13.5 4.7 39 7.0 NNW 22 32 12 17 1007.2 1007.3 0.0
24/09:30am 18.3 13.9 6.5 46 5.9 NNW 19 28 10 15 1007.8 1007.8 0.0
24/09:00am 16.8 12.2 6.6 51 5.1 N 20 28 11 15 1008.0 1008.0 0.0
24/08:30am 16.0 11.8 7.5 57 4.3 N 19 22 10 12 1008.1 1008.1 0.0
24/08:00am 14.1 10.6 7.4 64 3.3 NNE 15 19 8 10 1008.4 1008.4 0.0
24/07:30am 11.7 9.8 7.4 75 2.1 NNE 7 13 4 7 1008.3 1008.3 0.0
24/07:00am 8.1 7.1 5.7 85 1.1 CALM 0 0 0 0 1007.7 1007.7 0.0
24/06:30am 7.7 6.6 5.3 85 1.1 CALM 0 0 0 0 1007.5 1007.5 0.0
24/06:00am 6.6 4.1 3.6 81 1.3 NNW 6 9 3 5 1007.2 1007.3 0.0
24/05:30am 9.2 8.0 4.8 74 2.0 CALM 0 0 0 0 1006.3 1006.3 0.0
24/05:00am 10.6 8.0 6.2 74 2.1 S 9 13 5 7 1006.2 1006.2 0.0
24/04:30am 10.3 8.8 5.1 70 2.4 SW 2 7 1 4 1006.6 1006.6 0.0
24/04:00am 12.1 9.4 5.7 65 3.0 S 9 9 5 5 1005.9 1005.9 0.0
24/03:30am 13.7 10.7 6.1 60 3.7 SSW 11 15 6 8 1006.0 1006.0 0.0
24/03:00am 14.8 10.8 6.6 58 4.1 SW 17 24 9 13 1005.8 1005.8 0.0
24/02:30am 15.6 11.6 6.6 55 4.5 WSW 17 24 9 13 1005.3 1005.3 0.0
24/02:00am 15.6 12.0 5.2 50 5.0 SW 13 19 7 10 1004.4 1004.4 0.0
24/01:30am 16.7 14.1 4.4 44 5.9 SW 7 11 4 6 1004.0 1004.0 0.0
24/01:00am 17.6 13.6 3.1 38 6.8 SW 13 20 7 11 1003.8 1003.8 0.0
24/12:30am 19.2 14.3 2.1 32 7.9 WSW 17 22 9 12 1003.4 1003.4 0.0
24/12:00am 20.5 15.0 1.9 29 8.7 WSW 20 32 11 17 1002.8 1002.8 0.0
 
Date/Time
EST
Temp
°C
App
Temp
°C
Dew
Point
°C
Rel
Hum
%
Delta-T
°C
Wind Press
QNH
hPa
Press
MSL
hPa
Rain since
9am
mm
Dir  Spd
km/h
Gust
km/h
Spd
kts
Gust
kts
23/11:30pm 21.4 15.6 2.2 28 9.1 WSW 22 32 12 17 1002.5 1002.5 0.0
23/11:00pm 22.7 17.0 4.7 31 9.1 SW 24 37 13 20 1001.9 1001.9 0.0
23/10:30pm 24.6 19.0 3.3 25 10.5 WSW 22 30 12 16 1001.1 1001.1 0.0
23/10:00pm 24.9 19.7 2.4 23 11.0 WSW 19 24 10 13 1000.7 1000.6 0.0
23/09:30pm 25.6 20.7 1.7 21 11.6 W 17 24 9 13 1000.2 1000.1 0.0
23/09:00pm 24.8 20.4 0.3 20 11.5 W 13 17 7 9 1000.2 1000.1 0.0
23/08:30pm 27.6 21.9 -0.5 16 13.2 WSW 19 26 10 14 999.9 999.8 0.0
23/08:05pm 28.7 22.3 -1.4 14 14.1 WNW 22 46 12 25 999.3 999.3 0.0
23/08:00pm 26.0 20.9 0.6 19 12.1 NW 17 20 9 11 999.3 999.3 0.0
23/07:30pm 27.2 22.4 0.1 17 12.9 NNW 15 20 8 11 998.2 998.2 0.0
23/07:00pm 30.7 22.2 -1.9 12 15.4 NW 33 65 18 35 998.0 998.0 0.0
23/06:53pm 29.2 23.8 -1.0 14 14.3 NW 17 65 9 35 998.0 998.0 0.0
23/06:52pm 26.7 22.3 0.4 18 12.5 NW 13 35 7 19 998.1 998.1 0.0
23/06:30pm 26.8 22.7 -0.3 17 12.7 NNE 11 17 6 9 997.9 997.9 0.0
23/06:00pm 27.4 21.7 -0.6 16 13.2 N 19 24 10 13 998.6 998.6 0.0
23/05:30pm 27.7 20.7 -0.4 16 13.3 NNE 26 32 14 17 998.4 998.4 0.0
23/05:00pm 28.4 21.8 -0.7 15 13.8 NNE 24 33 13 18 998.5 998.5 0.0
23/04:30pm 30.1 21.7 -2.4 12 15.1 N 32 43 17 23 998.7 998.7 0.0
23/04:00pm 30.9 22.0 -1.8 12 15.5 N 35 48 19 26 999.0 999.0 0.0
23/03:33pm 31.1 22.2 -1.6 12 15.5 N 35 54 19 29 999.2 999.2 0.0
23/03:30pm 30.2 20.5 -2.3 12 15.1 N 39 54 21 29 999.3 999.3 0.0
23/03:00pm 31.1 22.0 -0.5 13 15.4 N 37 52 20 28 999.6 999.6 0.0
23/02:30pm 30.9 22.0 -1.8 12 15.4 N 35 52 19 28 1000.2 1000.1 0.0
23/02:00pm 31.8 23.4 -2.3 11 16.2 N 32 46 17 25 1000.5 1000.4 0.0
23/01:30pm 32.3 24.1 -0.7 12 16.0 N 32 44 17 24 1001.2 1001.2 0.0
23/01:00pm 30.5 22.3 -1.0 13 15.1 N 32 43 17 23 1001.7 1001.7 0.0
23/12:30pm 30.7 22.3 -0.8 13 15.1 N 33 43 18 23 1002.4 1002.4 0.0
23/12:00pm 29.9 21.5 -2.6 12 15.1 N 32 43 17 23 1002.9 1002.9 0.0
23/11:30am 29.6 21.2 -2.8 12 14.9 N 32 46 17 25 1003.7 1003.6 0.0
23/11:00am 28.8 20.9 -1.3 14 14.2 N 30 37 16 20 1004.6 1004.6 0.0
23/10:30am 26.6 18.4 -4.0 13 13.4 N 30 43 16 23 1005.6 1005.6 0.0
23/10:19am 26.8 19.8 -3.9 13 13.5 N 24 46 13 25 1005.8 1005.8 0.0
23/10:00am 26.0 21.2 -0.1 18 12.3 NNE 15 22 8 12 1006.6 1006.6 0.0
23/09:30am 22.8 18.9 -1.3 20 10.8 SSE 9 13 5 7 1007.2 1007.3 0.0
23/09:00am 21.7 17.9 -0.9 22 10.1 E 9 20 5 11 1007.1 1007.2 0.0
23/08:30am 19.9 15.8 -0.1 26 8.9 S 11 15 6 8 1007.9 1007.9 0.0
23/08:00am 19.9 14.4 -2.4 22 9.6 NNE 17 24 9 13 1007.0 1007.1 0.0
23/07:30am 18.3 12.8 -2.0 25 8.6 NE 17 20 9 11 1007.0 1007.1 0.0
23/07:00am 17.0 12.3 -2.1 27 8.0 NNE 13 17 7 9 1007.1 1007.2 0.0
23/06:30am 16.4 12.5 -1.7 29 7.6 NNE 9 13 5 7 1007.4 1007.4 0.0
23/06:00am 16.1 10.5 -2.9 27 7.8 NNE 17 20 9 11 1007.4 1007.4 0.0
23/05:30am 16.1 11.3 -2.4 28 7.6 N 13 19 7 10 1007.4 1007.4 0.0
23/05:00am 16.0 11.2 -2.5 28 7.6 N 13 20 7 11 1007.1 1007.2 0.0
23/04:30am 15.8 11.9 -1.7 30 7.3 NNE 9 17 5 9 1007.2 1007.3 0.0
23/04:00am 15.2 10.9 -1.4 32 6.9 NE 11 13 6 7 1007.4 1007.4 0.0
23/03:30am 16.0 11.7 -1.5 30 7.3 NNE 11 13 6 7 1007.7 1007.7 0.0
23/03:00am 13.3 9.5 -0.7 38 5.8 N 9 11 5 6 1008.2 1008.2 0.0
23/02:30am 12.6 9.2 -2.1 36 5.9 NNE 6 9 3 5 1008.7 1008.7 0.0
23/02:00am 12.6 9.3 -1.3 38 5.7 NNE 6 7 3 4 1009.0 1009.0 0.0
23/01:30am 13.1 9.8 -1.2 37 5.9 NNE 6 7 3 4 1009.3 1009.3 0.0
23/01:00am 14.6 11.1 -1.1 34 6.6 NNE 7 9 4 5 1009.7 1009.7 0.0
23/12:30am 13.3 9.6 -0.3 39 5.7 NNE 9 11 5 6 1009.8 1009.9 0.0
23/12:00am 9.2 5.2 0.4 54 3.6 NNE 11 13 6 7 1009.9 1010.0 0.0
 
Date/Time
EST
Temp
°C
App
Temp
°C
Dew
Point
°C
Rel
Hum
%
Delta-T
°C
Wind Press
QNH
hPa
Press
MSL
hPa
Rain since
9am
mm
Dir  Spd
km/h
Gust
km/h
Spd
kts
Gust
kts
22/11:30pm 9.0 5.8 1.0 57 3.3 ENE 7 11 4 6 1009.9 1010.0 0.0
22/11:00pm 8.1 4.8 0.3 58 3.2 ENE 7 11 4 6 1010.0 1010.1 0.0
22/10:30pm 7.7 4.7 0.9 62 2.8 ENE 6 7 3 4 1010.3 1010.4 0.0
22/10:00pm 8.9 5.9 1.1 58 3.2 ENE 6 9 3 5 1010.5 1010.6 0.0
22/09:30pm 13.0 9.8 -0.3 40 5.6 ENE 6 9 3 5 1010.5 1010.6 0.0
22/09:00pm 16.6 12.7 -1.5 29 7.6 ENE 9 11 5 6 1010.5 1010.6 0.0
22/08:30pm 19.4 15.1 -1.7 24 9.1 ENE 11 13 6 7 1010.4 1010.5 0.0
22/08:00pm 20.0 15.8 -1.2 24 9.3 ENE 11 15 6 8 1010.5 1010.6 0.0
22/07:30pm 20.5 16.2 -1.3 23 9.6 ENE 11 13 6 7 1010.2 1010.3 0.0
22/07:00pm 21.7 17.0 -1.6 21 10.3 ENE 13 15 7 8 1010.1 1010.2 0.0
22/06:30pm 22.4 17.8 -3.8 17 11.1 ENE 11 15 6 8 1009.9 1010.0 0.0
22/06:00pm 23.1 17.8 -3.3 17 11.4 NE 15 19 8 10 1009.8 1009.9 0.0
22/05:30pm 24.9 18.8 -3.5 15 12.4 NNE 19 24 10 13 1009.8 1009.9 0.0
22/05:00pm 26.8 20.1 -3.9 13 13.5 NNE 22 28 12 15 1009.9 1010.0 0.0
22/04:30pm 27.7 21.1 -3.2 13 13.9 N 22 28 12 15 1009.9 1010.0 0.0
22/04:00pm 28.1 21.6 -6.3 10 14.7 N 20 35 11 19 1009.9 1010.0 0.0
22/03:30pm 28.7 21.2 -4.6 11 14.7 N 26 35 14 19 1010.0 1010.1 0.0
22/03:00pm 28.5 21.1 -7.4 9 15.1 NNW 24 37 13 20 1010.2 1010.3 0.0
22/02:30pm 28.8 21.5 -5.8 10 15.0 N 24 33 13 18 1010.5 1010.6 0.0
22/02:09pm 28.7 20.8 -4.6 11 14.7 N 28 46 15 25 1010.8 1010.9 0.0
22/02:00pm 28.4 20.9 -4.9 11 14.6 N 26 37 14 20 1010.9 1011.0 0.0
22/01:30pm 28.0 21.4 -3.0 13 14.0 N 22 35 12 19 1011.3 1011.3 0.0
22/01:00pm 27.7 21.6 -2.2 14 13.7 NNW 20 32 11 17 1011.7 1011.7 0.0
22/12:30pm 27.2 20.8 -1.7 15 13.3 NNW 22 33 12 18 1012.1 1012.1 0.0
22/12:00pm 25.9 19.9 -1.8 16 12.6 N 20 35 11 19 1012.6 1012.6 0.0
22/11:30am 25.3 19.2 -2.3 16 12.4 NNW 20 28 11 15 1013.2 1013.3 0.0
22/11:00am 24.8 18.7 -3.6 15 12.4 N 19 28 10 15 1013.6 1013.7 0.0
22/10:30am 22.7 17.4 -0.7 21 10.6 NNE 17 22 9 12 1013.9 1014.0 0.0
22/10:00am 21.4 16.7 1.1 26 9.4 NNE 15 20 8 11 1014.1 1014.2 0.0
22/09:30am 19.5 15.0 0.0 27 8.7 NNE 13 17 7 9 1014.5 1014.6 0.0
22/09:00am 17.9 12.2 -0.4 29 8.0 NNE 19 22 10 12 1014.5 1014.6 0.0
22/08:30am 17.3 12.3 -0.9 29 7.8 NNE 15 22 8 12 1014.6 1014.7 0.0
22/08:00am 14.6 10.5 2.2 43 5.6 NE 13 15 7 8 1014.6 1014.7 0.0
22/07:52am 14.2 11.0 2.8 46 5.2 NE 9 15 5 8 1014.5 1014.6 0.0
22/07:30am 9.2 7.8 3.8 69 2.4 CALM 0 6 0 3 1014.4 1014.5 0.0
22/07:00am 8.5 6.7 3.6 71 2.1 W 2 9 1 5 1014.2 1014.3 0.0
22/06:40am 10.7 6.6 2.0 55 3.7 ENE 13 19 7 10 1013.4 1013.5 0.0
22/06:30am 5.7 2.2 3.7 87 0.9 ENE 11 15 6 8 1013.5 1013.6 0.0
22/06:00am 3.8 1.0 1.8 87 0.8 ESE 6 7 3 4 1013.9 1014.0 0.0
22/05:30am 4.5 2.5 2.2 85 0.9 S 2 6 1 3 1013.8 1013.9 0.0
22/05:00am 5.3 2.1 3.0 85 1.0 ENE 9 15 5 8 1013.4 1013.5 0.0
22/04:30am 2.5 -0.6 0.4 86 0.8 SSW 6 11 3 6 1013.5 1013.6 0.0
22/04:00am 3.6 1.5 2.0 89 0.6 S 2 11 1 6 1013.2 1013.3 0.0
22/03:30am 3.7 0.8 1.7 87 0.8 E 6 9 3 5 1013.2 1013.3 0.0
22/03:00am 4.0 1.6 2.0 87 0.8 SSE 4 9 2 5 1013.3 1013.4 0.0
22/02:30am 5.2 3.6 2.4 82 1.2 CALM 0 0 0 0 1013.3 1013.4 0.0
22/02:00am 6.3 4.9 3.3 81 1.3 CALM 0 0 0 0 1013.6 1013.7 0.0
22/01:30am 6.5 4.7 3.3 80 1.4 SE 2 6 1 3 1014.0 1014.1 0.0
22/01:00am 5.8 3.5 2.8 81 1.3 S 4 6 2 3 1014.4 1014.5 0.0
22/12:30am 4.8 3.1 1.7 80 1.3 CALM 0 0 0 0 1014.4 1014.5 0.0
22/12:00am 6.2 3.6 3.0 80 1.4 S 6 7 3 4 1014.4 1014.5 0.0
 
Date/Time
EST
Temp
°C
App
Temp
°C
Dew
Point
°C
Rel
Hum
%
Delta-T
°C
Wind Press
QNH
hPa
Press
MSL
hPa
Rain since
9am
mm
Dir  Spd
km/h
Gust
km/h
Spd
kts
Gust
kts
21/11:30pm 5.9 3.1 2.9 81 1.3 SSW 7 9 4 5 1014.3 1014.4 0.0
21/11:00pm 5.4 2.6 1.9 78 1.4 SSW 6 7 3 4 1014.2 1014.3 0.0
21/10:30pm 6.7 5.2 3.1 78 1.5 CALM 0 0 0 0 1014.2 1014.3 0.0
21/10:00pm 7.1 5.5 2.6 73 1.9 CALM 0 0 0 0 1014.3 1014.4 0.0
21/09:30pm 7.4 4.6 2.9 73 1.9 SW 7 11 4 6 1014.2 1014.3 0.0
21/09:00pm 10.2 7.1 3.7 64 2.9 NE 9 11 5 6 1013.8 1013.9 0.0
21/08:30pm 9.9 7.3 3.4 64 2.9 S 6 7 3 4 1014.1 1014.2 0.0
21/08:00pm 11.5 9.0 1.7 51 4.2 NE 4 7 2 4 1014.0 1014.1 0.0
21/07:30pm 14.6 11.4 3.1 46 5.3 NE 9 11 5 6 1013.8 1013.9 0.0
21/07:00pm 15.6 12.3 2.4 41 6.0 ENE 9 11 5 6 1013.8 1013.9 0.0
21/06:30pm 18.5 14.9 3.2 36 7.2 ENE 11 13 6 7 1013.7 1013.8 0.0
21/06:00pm 18.9 15.3 3.1 35 7.5 NNE 11 15 6 8 1013.6 1013.7 0.0
21/05:30pm 20.9 16.6 3.2 31 8.5 NNE 15 19 8 10 1013.4 1013.5 0.0
21/05:00pm 22.4 17.2 2.5 27 9.5 NNE 19 22 10 12 1013.3 1013.4 0.0
21/04:30pm 22.9 17.8 0.7 23 10.3 N 17 20 9 11 1013.2 1013.3 0.0
21/04:00pm 23.5 18.6 1.8 24 10.4 N 17 20 9 11 1013.2 1013.3 0.0
21/03:30pm 23.5 19.4 2.4 25 10.2 NNW 13 22 7 12 1013.3 1013.4 0.0
21/03:00pm 23.6 19.1 2.4 25 10.2 N 15 19 8 10 1013.7 1013.8 0.0

Other Formats:

Comma delimited format used in spreadsheet applications
http://www.bom.gov.au/fwo/IDN60801/IDN60801.95722.axf

JavaScript Object Notation format (JSON) in row-major order
http://www.bom.gov.au/fwo/IDN60801/IDN60801.95722.json